createdAt,value
2022-08-30T00:02:10.507Z,16.58
2022-08-30T00:05:35.650Z,16.559999
2022-08-30T00:09:00.826Z,16.559999
2022-08-30T00:12:26.005Z,16.57
2022-08-30T00:15:51.238Z,16.59
2022-08-30T00:19:16.349Z,16.6
2022-08-30T00:22:41.569Z,16.57
2022-08-30T00:26:06.745Z,16.530001
2022-08-30T00:29:31.920Z,16.48
2022-08-30T00:32:57.101Z,16.43
2022-08-30T00:36:22.283Z,16.389999
2022-08-30T00:39:47.475Z,16.360001
2022-08-30T00:43:13.888Z,16.379999
2022-08-30T00:46:37.882Z,16.370001
2022-08-30T00:50:03.043Z,16.35
2022-08-30T00:53:28.239Z,16.34
2022-08-30T00:56:53.416Z,16.32
2022-08-30T01:00:18.588Z,16.34
2022-08-30T01:03:43.794Z,16.33
2022-08-30T01:07:09.006Z,16.280001
2022-08-30T01:10:34.199Z,16.26
2022-08-30T01:13:59.396Z,16.23
2022-08-30T01:17:24.596Z,16.23
2022-08-30T01:20:49.779Z,16.280001
2022-08-30T01:24:14.954Z,16.290001
2022-08-30T01:27:40.152Z,16.219999
2022-08-30T01:31:05.408Z,16.209999
2022-08-30T01:34:30.510Z,16.219999
2022-08-30T01:37:55.704Z,16.219999
2022-08-30T01:41:20.898Z,16.209999
2022-08-30T01:44:46.090Z,16.209999
2022-08-30T01:48:11.272Z,16.190001
2022-08-30T01:51:36.474Z,16.190001
2022-08-30T01:55:01.642Z,16.16
2022-08-30T01:58:26.824Z,16.120001
2022-08-30T02:01:52.137Z,16.110001
2022-08-30T02:05:17.219Z,16.120001
2022-08-30T02:08:42.401Z,16.139999
2022-08-30T02:12:07.595Z,16.139999
2022-08-30T02:15:33.025Z,16.110001
2022-08-30T02:18:57.977Z,16.110001
2022-08-30T02:22:23.185Z,16.09
2022-08-30T02:25:48.381Z,16.07
2022-08-30T02:29:13.567Z,16.049999
2022-08-30T02:32:38.753Z,16.07
2022-08-30T02:36:03.957Z,16.1
2022-08-30T02:39:29.156Z,16.129999
2022-08-30T02:42:54.343Z,16.120001
2022-08-30T02:46:19.630Z,16.110001
2022-08-30T02:49:44.771Z,16.07
2022-08-30T02:53:09.954Z,16.030001
2022-08-30T02:56:35.163Z,15.99
2022-08-30T03:00:00.347Z,15.99
2022-08-30T03:03:25.595Z,16.030001
2022-08-30T03:06:50.757Z,16.059999
2022-08-30T03:10:15.959Z,16.07
2022-08-30T03:13:41.151Z,16.059999
2022-08-30T03:17:06.339Z,16.040001
2022-08-30T03:20:31.526Z,16.02
2022-08-30T03:23:56.749Z,16
2022-08-30T03:27:21.938Z,16
2022-08-30T03:30:47.118Z,16
2022-08-30T03:34:12.306Z,15.98
2022-08-30T03:37:37.517Z,15.97
2022-08-30T03:41:02.727Z,15.94
2022-08-30T03:44:27.922Z,15.92
2022-08-30T03:47:53.090Z,15.9
2022-08-30T03:51:18.252Z,15.89
2022-08-30T03:54:43.429Z,15.87
2022-08-30T03:58:08.634Z,15.85
2022-08-30T04:01:33.888Z,15.84
2022-08-30T04:04:59.020Z,15.84
2022-08-30T04:08:24.178Z,15.85
2022-08-30T04:11:49.353Z,15.83
2022-08-30T04:15:14.553Z,15.82
2022-08-30T04:18:39.750Z,15.83
2022-08-30T04:22:04.929Z,15.83
2022-08-30T04:25:30.126Z,15.81
2022-08-30T04:28:55.337Z,15.77
2022-08-30T04:32:20.528Z,15.76
2022-08-30T04:35:45.741Z,15.78
2022-08-30T04:39:10.925Z,15.77
2022-08-30T04:42:36.107Z,15.75
2022-08-30T04:46:01.311Z,15.75
2022-08-30T04:49:26.457Z,15.76
2022-08-30T04:52:51.664Z,15.79
2022-08-30T04:56:16.856Z,15.83
2022-08-30T04:59:42.201Z,15.85
2022-08-30T05:03:07.382Z,15.87
2022-08-30T05:06:32.550Z,15.89
2022-08-30T05:09:57.718Z,15.92
2022-08-30T05:13:25.995Z,15.98
2022-08-30T05:16:48.084Z,16.01
2022-08-30T05:20:13.266Z,16.030001
2022-08-30T05:23:38.472Z,16.08
2022-08-30T05:27:03.657Z,16.120001
2022-08-30T05:30:28.812Z,16.190001
2022-08-30T05:33:53.996Z,16.27
2022-08-30T05:37:19.171Z,16.360001
2022-08-30T05:40:44.360Z,16.440001
2022-08-30T05:44:09.490Z,16.52
2022-08-30T05:47:34.664Z,16.6
2022-08-30T05:50:59.817Z,16.719999
2022-08-30T05:54:24.972Z,16.809999
2022-08-30T05:57:50.153Z,16.91
2022-08-30T06:01:15.318Z,17
2022-08-30T06:04:40.523Z,17.120001
2022-08-30T06:08:05.717Z,17.219999
2022-08-30T06:11:30.943Z,17.360001
2022-08-30T06:14:56.132Z,17.49
2022-08-30T06:18:21.634Z,17.629999
2022-08-30T06:21:46.482Z,17.719999
2022-08-30T06:25:11.651Z,17.809999
2022-08-30T06:28:36.846Z,17.889999
2022-08-30T06:32:02.010Z,17.969999
2022-08-30T06:35:27.191Z,18.040001
2022-08-30T06:38:52.350Z,18.07
2022-08-30T06:42:17.528Z,18.09
2022-08-30T06:45:42.704Z,18.120001
2022-08-30T06:49:07.874Z,18.16
2022-08-30T06:52:33.050Z,18.200001
2022-08-30T06:55:58.213Z,18.24
2022-08-30T06:59:23.381Z,18.290001
2022-08-30T07:02:48.582Z,18.309999
2022-08-30T07:06:13.751Z,18.309999
2022-08-30T07:09:38.931Z,18.35
2022-08-30T07:13:04.150Z,18.4
2022-08-30T07:16:29.324Z,18.469999
2022-08-30T07:19:54.502Z,18.51
2022-08-30T07:23:19.701Z,18.52
2022-08-30T07:26:44.867Z,18.57
2022-08-30T07:30:10.035Z,18.620001
2022-08-30T07:33:35.222Z,18.68
2022-08-30T07:37:00.408Z,18.74
2022-08-30T07:40:25.645Z,18.799999
2022-08-30T07:43:50.735Z,18.879999
2022-08-30T07:47:15.907Z,18.940001
2022-08-30T07:50:41.125Z,19
2022-08-30T07:54:06.321Z,19.049999
2022-08-30T07:57:31.476Z,19.139999
2022-08-30T08:00:57.166Z,19.190001
2022-08-30T08:04:22.335Z,19.26
2022-08-30T08:07:47.506Z,19.309999
2022-08-30T08:11:12.680Z,19.35
2022-08-30T08:14:37.838Z,19.42
2022-08-30T08:18:03.046Z,19.48
2022-08-30T08:21:28.224Z,19.549999
2022-08-30T08:24:53.417Z,19.639999
2022-08-30T08:28:18.625Z,19.700001
2022-08-30T08:31:43.806Z,19.799999
2022-08-30T08:35:08.929Z,19.889999
2022-08-30T08:38:34.102Z,19.959999
2022-08-30T08:41:59.296Z,20.02
2022-08-30T08:45:24.516Z,20.139999
2022-08-30T08:48:59.808Z,20.219999
2022-08-30T08:52:14.844Z,20.23
2022-08-30T08:55:40.111Z,20.25
2022-08-30T08:59:05.214Z,20.299999
2022-08-30T09:02:30.398Z,20.389999
2022-08-30T09:05:55.572Z,20.459999
2022-08-30T09:09:20.747Z,20.5
2022-08-30T09:12:45.934Z,20.58
2022-08-30T09:16:11.114Z,20.709999
2022-08-30T09:19:36.289Z,20.790001
2022-08-30T09:23:01.488Z,20.9
2022-08-30T09:26:26.670Z,21.030001
2022-08-30T09:29:51.867Z,21.16
2022-08-30T09:33:17.091Z,21.27
2022-08-30T09:36:42.270Z,21.440001
2022-08-30T09:40:07.462Z,21.57
2022-08-30T09:43:32.597Z,21.709999
2022-08-30T09:46:57.801Z,21.82
2022-08-30T09:50:24.084Z,21.969999
2022-08-30T09:54:01.142Z,22.1
2022-08-30T09:57:13.502Z,22.209999
2022-08-30T10:00:38.781Z,22.26
2022-08-30T10:04:04.015Z,22.32
2022-08-30T10:07:29.325Z,22.360001
2022-08-30T10:10:54.479Z,22.379999
2022-08-30T10:14:19.719Z,22.43
2022-08-30T10:17:44.943Z,22.51
2022-08-30T10:21:10.189Z,22.610001
2022-08-30T10:24:35.428Z,22.690001
2022-08-30T10:28:00.689Z,22.84
2022-08-30T10:31:25.917Z,22.99
2022-08-30T10:34:51.141Z,23.120001
2022-08-30T10:38:16.384Z,23.17
2022-08-30T10:41:41.627Z,23.23
2022-08-30T10:45:06.865Z,23.309999
2022-08-30T10:48:32.114Z,23.34
2022-08-30T10:51:58.861Z,23.379999
2022-08-30T10:55:22.631Z,23.459999
2022-08-30T10:58:47.856Z,23.5
2022-08-30T11:02:13.080Z,23.540001
2022-08-30T11:05:38.322Z,23.610001
2022-08-30T11:09:03.543Z,23.65
2022-08-30T11:12:28.764Z,23.67
2022-08-30T11:15:54.013Z,23.690001
2022-08-30T11:19:20.665Z,23.67
2022-08-30T11:22:44.476Z,23.67
2022-08-30T11:26:12.125Z,23.74
2022-08-30T11:29:34.968Z,23.77
2022-08-30T11:33:00.188Z,23.809999
2022-08-30T11:36:25.435Z,23.85
2022-08-30T11:39:50.657Z,23.860001
2022-08-30T11:43:16.057Z,23.879999
2022-08-30T11:46:41.121Z,23.9
2022-08-30T11:50:08.581Z,23.83
2022-08-30T11:53:31.585Z,23.74
2022-08-30T11:56:56.834Z,23.73
2022-08-30T12:00:22.084Z,23.77
2022-08-30T12:03:47.579Z,23.780001
2022-08-30T12:07:13.059Z,23.780001
2022-08-30T12:10:38.309Z,23.77
2022-08-30T12:14:04.277Z,23.73
2022-08-30T12:17:28.771Z,23.74
2022-08-30T12:20:54.011Z,23.75
2022-08-30T12:24:19.596Z,23.75
2022-08-30T12:27:44.833Z,23.719999
2022-08-30T12:31:10.097Z,23.75
2022-08-30T12:34:35.338Z,23.75
2022-08-30T12:38:00.567Z,23.809999
2022-08-30T12:41:25.802Z,23.879999
2022-08-30T12:44:51.052Z,23.940001
2022-08-30T12:48:16.518Z,24
2022-08-30T12:51:41.506Z,24
2022-08-30T12:55:16.297Z,24.01
2022-08-30T12:58:31.979Z,24.02
2022-08-30T13:01:57.363Z,24.030001
2022-08-30T13:05:22.459Z,24.059999
2022-08-30T13:08:47.690Z,24.15
2022-08-30T13:12:12.914Z,24.17
2022-08-30T13:15:38.177Z,24.059999
2022-08-30T13:19:03.415Z,23.92
2022-08-30T13:22:28.648Z,23.700001
2022-08-30T13:25:53.881Z,23.49
2022-08-30T13:29:19.169Z,23.360001
2022-08-30T13:32:44.369Z,23.27
2022-08-30T13:36:09.710Z,23.25
2022-08-30T13:39:34.921Z,23.24
2022-08-30T13:43:00.159Z,23.32
2022-08-30T13:46:25.599Z,23.459999
2022-08-30T13:49:50.654Z,23.48
2022-08-30T13:53:16.167Z,23.440001
2022-08-30T13:56:41.089Z,23.360001
2022-08-30T14:00:06.330Z,23.290001
2022-08-30T14:03:31.666Z,23.299999
2022-08-30T14:07:13.830Z,23.299999
2022-08-30T14:10:45.851Z,23.35
2022-08-30T14:17:12.740Z,23.469999
2022-08-30T14:20:38.355Z,23.51
2022-08-30T14:24:03.064Z,23.559999
2022-08-30T14:27:28.293Z,23.59
2022-08-30T15:03:39.297Z,21.440001
2022-08-30T15:07:04.480Z,22.35
2022-08-30T15:10:29.697Z,22.52
2022-08-30T15:13:54.933Z,22.68
2022-08-30T15:17:20.168Z,22.82
2022-08-30T15:20:45.413Z,22.92
2022-08-30T15:24:10.652Z,23
2022-08-30T15:27:35.890Z,23.040001
2022-08-30T15:31:04.060Z,23.040001
2022-08-30T15:34:27.995Z,23.040001
2022-08-30T15:37:51.573Z,23.01
2022-08-30T15:41:16.881Z,22.950001
2022-08-30T15:44:42.098Z,22.9
2022-08-30T15:48:07.372Z,22.92
2022-08-30T15:51:41.332Z,22.940001
2022-08-30T15:54:57.857Z,22.93
2022-08-30T15:58:23.098Z,22.93
2022-08-30T16:01:48.481Z,22.92
2022-08-30T16:05:13.560Z,22.9
2022-08-30T16:08:38.825Z,22.91
2022-08-30T16:12:04.532Z,22.889999
2022-08-30T16:15:29.277Z,22.84
2022-08-30T16:18:55.242Z,22.790001
2022-08-30T16:22:22.165Z,22.73
2022-08-30T16:25:45.008Z,22.67
2022-08-30T16:29:10.242Z,22.629999
2022-08-30T16:32:35.484Z,22.559999
2022-08-30T16:36:00.718Z,22.49
2022-08-30T16:39:25.962Z,22.43
2022-08-30T16:42:51.204Z,22.370001
2022-08-30T16:46:16.520Z,22.35
2022-08-30T16:49:41.692Z,22.309999
2022-08-30T16:53:06.925Z,22.26
2022-08-30T16:56:32.146Z,22.219999
2022-08-30T16:59:57.523Z,22.18
2022-08-30T17:03:22.768Z,22.120001
2022-08-30T17:06:47.992Z,22.07
2022-08-30T17:10:13.310Z,22.030001
2022-08-30T17:13:38.463Z,21.969999
2022-08-30T17:17:03.717Z,21.9
2022-08-30T17:20:28.962Z,21.84
2022-08-30T17:23:54.258Z,21.77
2022-08-30T17:27:19.510Z,21.68
2022-08-30T17:30:45.263Z,21.6
2022-08-30T17:34:11.623Z,21.52
2022-08-30T17:37:35.495Z,21.43
2022-08-30T17:41:00.779Z,21.360001
2022-08-30T17:44:26.081Z,21.280001
2022-08-30T17:47:51.413Z,21.190001
2022-08-30T17:51:16.669Z,21.16
2022-08-30T17:54:41.907Z,21.1
2022-08-30T17:58:07.267Z,21.040001
2022-08-30T18:01:32.618Z,20.98
2022-08-30T18:04:57.849Z,20.93
2022-08-30T18:08:23.157Z,20.889999
2022-08-30T18:11:48.603Z,20.860001
2022-08-30T18:15:15.633Z,20.84
2022-08-30T18:18:39.123Z,20.790001
2022-08-30T18:22:04.418Z,20.75
2022-08-30T18:25:29.812Z,20.700001
2022-08-30T18:28:55.147Z,20.639999
2022-08-30T18:32:20.434Z,20.6
2022-08-30T18:35:48.553Z,20.559999
2022-08-30T18:39:11.134Z,20.49
2022-08-30T18:42:36.440Z,20.43
2022-08-30T18:46:01.695Z,20.360001
2022-08-30T18:49:27.071Z,20.290001
2022-08-30T18:52:52.428Z,20.209999
2022-08-30T18:56:19.834Z,20.139999
2022-08-30T18:59:46.133Z,20.09
2022-08-30T19:03:23.900Z,20.040001
2022-08-30T19:06:49.182Z,19.98
2022-08-30T19:10:24.279Z,19.93
2022-08-30T19:13:49.591Z,19.91
2022-08-30T19:17:14.868Z,19.879999
2022-08-30T19:20:40.155Z,19.870001
2022-08-30T19:24:05.483Z,19.84
2022-08-30T19:27:37.220Z,19.790001
2022-08-30T19:30:56.077Z,19.75
2022-08-30T19:34:21.354Z,19.690001
2022-08-30T19:37:46.648Z,19.65
2022-08-30T19:41:11.875Z,19.59
2022-08-30T19:44:37.171Z,19.52
2022-08-30T19:48:02.419Z,19.5
2022-08-30T19:51:27.655Z,19.459999
2022-08-30T19:54:52.875Z,19.4
2022-08-30T19:58:18.123Z,19.370001
2022-08-30T20:01:43.393Z,19.33
2022-08-30T20:05:08.590Z,19.290001
2022-08-30T20:08:33.837Z,19.219999
2022-08-30T20:11:59.385Z,19.17
2022-08-30T20:15:24.334Z,19.15
2022-08-30T20:18:49.585Z,19.09
2022-08-30T20:22:15.196Z,19.059999
2022-08-30T20:25:40.059Z,19.01
2022-08-30T20:29:05.282Z,18.959999
2022-08-30T20:32:30.527Z,18.91
2022-08-30T20:35:55.763Z,18.879999
2022-08-30T20:39:20.996Z,18.870001
2022-08-30T20:42:46.257Z,18.83
2022-08-30T20:46:11.591Z,18.83
2022-08-30T20:49:36.707Z,18.83
2022-08-30T20:53:01.949Z,18.780001
2022-08-30T20:56:27.191Z,18.709999
2022-08-30T20:59:52.431Z,18.66
2022-08-30T21:03:25.761Z,18.65
2022-08-30T21:06:42.893Z,18.639999
2022-08-30T21:10:08.165Z,18.639999
2022-08-30T21:13:33.389Z,18.629999
2022-08-30T21:16:58.681Z,18.620001
2022-08-30T21:20:23.857Z,18.610001
2022-08-30T21:23:49.097Z,18.610001
2022-08-30T21:27:14.352Z,18.59
2022-08-30T21:30:39.686Z,18.559999
2022-08-30T21:34:04.817Z,18.559999
2022-08-30T21:37:33.041Z,18.540001
2022-08-30T21:40:55.301Z,18.559999
2022-08-30T21:44:20.508Z,18.549999
2022-08-30T21:47:45.763Z,18.57
2022-08-30T21:51:11.005Z,18.59
2022-08-30T21:54:36.248Z,18.59
2022-08-30T21:58:01.478Z,18.6
2022-08-30T22:01:26.787Z,18.59
2022-08-30T22:04:51.916Z,18.58
2022-08-30T22:08:17.147Z,18.559999
2022-08-30T22:11:42.389Z,18.549999
2022-08-30T22:15:07.633Z,18.549999
2022-08-30T22:18:32.866Z,18.57
2022-08-30T22:22:01.041Z,18.559999
2022-08-30T22:25:23.326Z,18.57
2022-08-30T22:28:48.555Z,18.549999
2022-08-30T22:32:13.828Z,18.52
2022-08-30T22:35:38.993Z,18.459999
2022-08-30T22:39:04.220Z,18.450001
2022-08-30T22:42:29.472Z,18.440001
2022-08-30T22:45:54.759Z,18.43
2022-08-30T22:49:19.921Z,18.42
2022-08-30T22:52:45.148Z,18.389999
2022-08-30T22:56:10.393Z,18.34
2022-08-30T22:59:35.595Z,18.32
2022-08-30T23:03:00.798Z,18.34
2022-08-30T23:06:26.054Z,18.34
2022-08-30T23:09:51.291Z,18.34
2022-08-30T23:13:16.636Z,18.32
2022-08-30T23:16:41.771Z,18.299999
2022-08-30T23:20:06.964Z,18.26
2022-08-30T23:23:32.181Z,18.25
2022-08-30T23:26:57.422Z,18.26
2022-08-30T23:30:22.654Z,18.27
2022-08-30T23:33:47.891Z,18.290001
2022-08-30T23:37:13.119Z,18.290001
2022-08-30T23:40:38.451Z,18.26
2022-08-30T23:44:03.605Z,18.23
2022-08-30T23:47:28.835Z,18.209999
2022-08-30T23:50:54.084Z,18.17
2022-08-30T23:54:19.275Z,18.110001
2022-08-30T23:57:44.469Z,18.07
